Time;durP1;ratioP1;P1;durP2;ratioP2;P2;SDS_P1;SDS_P2;PMS_P1;PMS_P2;Temp;Humidity;BMP_temperature;BMP_pressure;BME280_temperature;BME280_humidity;BME280_pressure;Samples;Min_cycle;Max_cycle;Signal;HPM_P1;HPM_P2
2022/07/18 00:00:09;;;;;;;8.43;4.53;;;19.20;99.90;;;;;;4998923;28;25118;-62
2022/07/18 00:02:35;;;;;;;6.70;4.75;;;19.20;99.90;;;;;;4986583;28;25369;-62
2022/07/18 00:05:01;;;;;;;10.40;5.00;;;19.20;99.90;;;;;;4991456;28;25097;-63
2022/07/18 00:07:26;;;;;;;10.02;4.50;;;19.20;99.90;;;;;;4992510;28;25079;-62
2022/07/18 00:09:52;;;;;;;9.57;4.97;;;19.20;99.90;;;;;;4994841;28;25072;-62
2022/07/18 00:12:18;;;;;;;8.48;5.03;;;19.20;99.90;;;;;;4999057;28;25091;-62
2022/07/18 00:14:43;;;;;;;6.82;5.03;;;19.30;99.90;;;;;;4993329;28;25150;-62
2022/07/18 00:17:09;;;;;;;7.45;4.70;;;19.20;99.90;;;;;;4991590;28;25058;-63
2022/07/18 00:19:35;;;;;;;10.45;4.60;;;19.30;99.90;;;;;;4996490;28;25063;-63
2022/07/18 00:22:01;;;;;;;11.30;4.75;;;19.30;99.90;;;;;;4987473;28;25073;-62
2022/07/18 00:24:27;;;;;;;9.98;4.88;;;19.30;99.90;;;;;;4985714;28;25054;-61
2022/07/18 00:26:53;;;;;;;7.10;4.43;;;19.30;99.90;;;;;;4990516;28;25078;-62
2022/07/18 00:29:19;;;;;;;11.93;4.35;;;19.20;99.90;;;;;;4988934;28;25049;-63
2022/07/18 00:31:45;;;;;;;10.38;4.45;;;19.20;99.90;;;;;;4995531;28;25166;-61
2022/07/18 00:34:10;;;;;;;7.63;4.88;;;19.10;99.90;;;;;;4995576;28;25140;-63
2022/07/18 00:36:36;;;;;;;11.80;4.63;;;19.20;99.90;;;;;;4987655;28;25055;-61
2022/07/18 00:39:02;;;;;;;8.27;5.07;;;19.20;99.90;;;;;;4979255;28;25064;-62
2022/07/18 00:41:28;;;;;;;7.32;4.28;;;19.30;99.90;;;;;;4992573;28;25075;-63
2022/07/18 00:43:54;;;;;;;7.75;4.57;;;19.30;99.90;;;;;;4992292;28;25073;-61
2022/07/18 00:46:24;;;;;;;7.53;4.70;;;19.20;99.90;;;;;;4993106;28;25148;-63
2022/07/18 00:48:50;;;;;;;6.93;4.32;;;19.20;99.90;;;;;;4992128;28;25096;-62
2022/07/18 00:51:16;;;;;;;5.78;4.35;;;19.10;99.90;;;;;;4991845;28;25081;-62
2022/07/18 00:53:42;;;;;;;9.23;4.22;;;19.00;99.90;;;;;;4984745;28;25066;-62
2022/07/18 00:56:09;;;;;;;6.47;3.70;;;19.00;99.90;;;;;;4992266;28;25107;-63
2022/07/18 00:58:34;;;;;;;10.40;4.40;;;19.00;99.90;;;;;;4985203;28;25069;-63
2022/07/18 01:03:44;;;;;;;7.40;3.92;;;18.90;99.90;;;;;;4991463;28;25063;-62
2022/07/18 01:06:10;;;;;;;7.35;4.10;;;18.80;99.90;;;;;;4995348;28;25121;-62
2022/07/18 01:08:37;;;;;;;10.90;4.30;;;18.70;99.90;;;;;;4983391;28;25111;-62
2022/07/18 01:11:03;;;;;;;6.93;4.20;;;18.70;99.90;;;;;;4996472;28;25291;-62
2022/07/18 01:13:29;;;;;;;6.88;3.85;;;18.70;99.90;;;;;;4989197;28;25073;-62
2022/07/18 01:15:54;;;;;;;8.10;4.47;;;18.70;99.90;;;;;;4990359;28;25079;-62
2022/07/18 01:18:20;;;;;;;4.95;4.15;;;18.70;99.90;;;;;;4995512;28;25060;-62
2022/07/18 01:20:46;;;;;;;7.18;3.80;;;18.60;99.90;;;;;;4989949;28;25069;-62
2022/07/18 01:23:11;;;;;;;6.78;4.32;;;18.60;99.90;;;;;;4996470;28;25102;-63
2022/07/18 01:25:37;;;;;;;8.63;4.55;;;18.50;99.90;;;;;;5006772;28;25055;-63
2022/07/18 01:28:02;;;;;;;7.95;4.43;;;18.40;99.90;;;;;;4990156;28;25066;-63
2022/07/18 01:30:28;;;;;;;7.95;4.05;;;18.40;99.90;;;;;;4989152;28;25069;-62
2022/07/18 01:33:01;;;;;;;9.38;4.30;;;18.50;99.90;;;;;;4986524;28;25128;-62
2022/07/18 01:35:28;;;;;;;6.60;4.20;;;18.50;99.90;;;;;;4987510;28;25101;-61
2022/07/18 01:37:56;;;;;;;8.63;3.92;;;18.50;99.90;;;;;;4994182;28;25155;-62
2022/07/18 01:40:22;;;;;;;7.45;3.83;;;18.40;99.90;;;;;;4997071;28;25187;-63
2022/07/18 01:42:48;;;;;;;9.65;4.07;;;18.40;99.90;;;;;;4994687;28;25086;-63
2022/07/18 01:45:14;;;;;;;4.10;3.60;;;18.30;99.90;;;;;;4993931;28;25090;-63
2022/07/18 01:47:40;;;;;;;6.35;3.95;;;18.30;99.90;;;;;;4998831;28;25057;-63
2022/07/18 01:50:07;;;;;;;8.30;4.22;;;18.30;99.90;;;;;;4990586;28;25146;-62
2022/07/18 01:52:32;;;;;;;8.23;3.80;;;18.30;99.90;;;;;;5001914;28;25065;-62
2022/07/18 01:54:58;;;;;;;6.53;3.70;;;18.30;99.90;;;;;;4998438;28;25073;-62
2022/07/18 01:57:24;;;;;;;11.20;4.05;;;18.30;99.90;;;;;;4998999;28;25079;-62
2022/07/18 01:59:49;;;;;;;13.52;3.97;;;18.20;99.90;;;;;;4994588;28;25081;-63
2022/07/18 02:02:16;;;;;;;6.55;4.25;;;18.20;99.90;;;;;;4989289;28;25084;-62
2022/07/18 02:04:59;;;;;;;8.13;4.10;;;18.20;99.90;;;;;;4993431;28;25071;-60
2022/07/18 02:07:36;;;;;;;6.13;3.80;;;18.10;99.90;;;;;;4989226;28;25048;-62
2022/07/18 02:10:08;;;;;;;12.80;4.30;;;18.10;99.90;;;;;;4990868;28;25132;-63
2022/07/18 02:12:34;;;;;;;5.53;3.60;;;18.20;99.90;;;;;;4987874;28;25143;-62
2022/07/18 02:15:00;;;;;;;6.40;4.20;;;18.20;99.90;;;;;;4994963;28;25143;-63
2022/07/18 02:17:26;;;;;;;5.32;3.50;;;18.10;99.90;;;;;;4993354;28;25097;-62
2022/07/18 02:19:51;;;;;;;5.38;3.40;;;18.10;99.90;;;;;;4998590;28;25092;-61
2022/07/18 02:22:17;;;;;;;6.97;3.60;;;18.10;99.90;;;;;;4987504;28;25149;-63
2022/07/18 02:24:43;;;;;;;6.53;3.60;;;18.10;99.90;;;;;;5001486;28;25100;-62
2022/07/18 02:27:09;;;;;;;4.25;3.42;;;18.10;99.90;;;;;;4991768;28;25067;-62
2022/07/18 02:29:34;;;;;;;7.82;4.00;;;18.10;99.90;;;;;;5002353;28;25070;-62
2022/07/18 02:32:00;;;;;;;7.65;3.65;;;18.00;99.90;;;;;;4998384;28;25111;-62
2022/07/18 02:34:25;;;;;;;8.00;3.83;;;18.10;99.90;;;;;;4997888;28;25163;-61
2022/07/18 02:36:51;;;;;;;9.90;4.47;;;18.10;99.90;;;;;;4996833;28;25058;-62
2022/07/18 02:39:17;;;;;;;7.93;4.18;;;18.00;99.90;;;;;;4992206;28;25073;-62
2022/07/18 02:41:43;;;;;;;9.23;4.05;;;18.00;99.90;;;;;;4991847;28;25086;-62
2022/07/18 02:44:09;;;;;;;11.30;3.78;;;17.90;99.90;;;;;;4995816;28;25076;-63
2022/07/18 02:46:34;;;;;;;7.68;4.20;;;17.90;99.90;;;;;;4997550;28;25079;-62
2022/07/18 02:49:01;;;;;;;5.07;3.60;;;18.00;99.90;;;;;;4994477;28;25070;-63
2022/07/18 02:51:26;;;;;;;11.15;4.72;;;18.00;99.90;;;;;;5001373;28;25073;-63
2022/07/18 02:53:52;;;;;;;9.85;3.88;;;17.90;99.90;;;;;;5004296;28;25053;-62
2022/07/18 02:56:18;;;;;;;6.53;4.22;;;17.90;99.90;;;;;;4990907;28;25075;-63
2022/07/18 02:58:44;;;;;;;7.60;3.63;;;17.90;99.90;;;;;;4995445;28;25057;-63
2022/07/18 03:01:09;;;;;;;5.07;3.22;;;17.90;99.90;;;;;;4998371;28;25082;-63
2022/07/18 03:03:35;;;;;;;7.18;3.70;;;18.00;99.90;;;;;;5001555;28;25065;-63
2022/07/18 03:06:00;;;;;;;8.57;4.00;;;18.00;99.90;;;;;;5012702;28;25149;-62
2022/07/18 03:08:26;;;;;;;7.45;3.92;;;18.00;99.90;;;;;;5007459;28;25057;-63
2022/07/18 03:10:51;;;;;;;6.35;3.53;;;18.10;99.90;;;;;;5001029;28;25112;-62
2022/07/18 03:13:17;;;;;;;5.72;3.70;;;18.00;99.90;;;;;;4993811;28;25062;-62
2022/07/18 03:15:42;;;;;;;10.07;3.92;;;17.90;99.90;;;;;;4999867;28;25064;-62
2022/07/18 03:18:08;;;;;;;9.05;5.00;;;17.80;99.90;;;;;;4999639;28;25072;-61
2022/07/18 03:20:34;;;;;;;7.40;4.10;;;17.90;99.90;;;;;;5000780;28;25086;-61
2022/07/18 03:23:05;;;;;;;10.10;4.53;;;17.90;99.90;;;;;;5003619;28;25101;-62
2022/07/18 03:25:31;;;;;;;10.38;4.53;;;17.90;99.90;;;;;;5002219;28;25063;-62
2022/07/18 03:27:56;;;;;;;7.97;4.10;;;17.90;99.90;;;;;;5011419;28;25065;-62
2022/07/18 03:30:22;;;;;;;8.38;4.30;;;18.00;99.90;;;;;;4991626;28;25127;-62
2022/07/18 03:32:48;;;;;;;7.90;4.43;;;18.00;99.90;;;;;;4999194;28;25062;-63
2022/07/18 03:35:14;;;;;;;8.55;3.88;;;18.00;99.90;;;;;;4995278;28;25080;-62
2022/07/18 03:37:39;;;;;;;12.32;4.68;;;18.00;99.90;;;;;;5006467;28;25487;-62
2022/07/18 03:40:05;;;;;;;6.38;3.92;;;17.90;99.90;;;;;;4998317;28;25080;-61
2022/07/18 03:42:31;;;;;;;7.10;3.90;;;17.90;99.90;;;;;;4998054;28;25076;-62
2022/07/18 03:44:56;;;;;;;9.48;3.88;;;17.90;99.90;;;;;;4987862;28;25139;-61
2022/07/18 03:47:22;;;;;;;10.02;4.22;;;17.90;99.90;;;;;;4995215;28;25076;-61
2022/07/18 03:49:47;;;;;;;11.18;4.30;;;17.80;99.90;;;;;;4989263;28;25438;-62
2022/07/18 03:52:13;;;;;;;7.60;3.90;;;17.80;99.90;;;;;;5000032;28;25064;-61
2022/07/18 03:54:39;;;;;;;8.70;4.40;;;17.80;99.90;;;;;;4988687;28;25082;-61
2022/07/18 03:57:04;;;;;;;8.57;4.18;;;17.80;99.90;;;;;;5001774;28;25064;-60
2022/07/18 03:59:30;;;;;;;15.73;4.93;;;17.70;99.90;;;;;;4983143;28;25131;-61
2022/07/18 04:01:55;;;;;;;7.72;4.32;;;17.90;99.90;;;;;;4998098;28;25131;-62
2022/07/18 04:04:21;;;;;;;10.65;4.00;;;17.80;99.90;;;;;;4998764;28;25058;-64
2022/07/18 04:06:47;;;;;;;7.85;3.90;;;17.80;99.90;;;;;;4984812;28;25138;-61
2022/07/18 04:09:12;;;;;;;10.43;3.53;;;17.80;99.90;;;;;;4998347;28;25055;-61
2022/07/18 04:11:38;;;;;;;9.27;4.20;;;17.70;99.90;;;;;;4985279;28;25050;-61
2022/07/18 04:14:03;;;;;;;8.38;4.28;;;17.70;99.90;;;;;;4993045;28;25127;-61
2022/07/18 04:16:29;;;;;;;10.63;4.93;;;17.70;99.90;;;;;;4997858;28;25079;-61
2022/07/18 04:18:55;;;;;;;8.68;4.10;;;17.70;99.90;;;;;;4990956;28;25138;-61
2022/07/18 04:21:20;;;;;;;8.18;4.10;;;17.80;99.90;;;;;;4988637;28;25083;-61
2022/07/18 04:23:46;;;;;;;6.82;4.28;;;17.80;99.90;;;;;;4991318;28;25084;-61
2022/07/18 04:26:11;;;;;;;10.85;4.80;;;17.80;99.90;;;;;;4988377;28;25182;-61
2022/07/18 04:28:37;;;;;;;9.32;4.50;;;17.70;99.90;;;;;;4993884;28;25184;-62
2022/07/18 04:31:03;;;;;;;9.52;4.60;;;17.70;99.90;;;;;;4987342;28;25060;-60
2022/07/18 04:33:28;;;;;;;6.20;3.47;;;17.80;99.90;;;;;;4991902;28;25065;-62
2022/07/18 04:35:54;;;;;;;9.15;4.35;;;17.80;99.90;;;;;;4979878;28;25139;-61
2022/07/18 04:38:19;;;;;;;9.27;4.35;;;17.80;99.90;;;;;;4996658;28;25092;-61
2022/07/18 04:40:45;;;;;;;8.43;4.57;;;17.80;99.90;;;;;;4992973;28;25063;-61
2022/07/18 04:43:11;;;;;;;7.63;4.45;;;17.80;99.90;;;;;;4997432;28;25139;-63
2022/07/18 04:45:37;;;;;;;9.25;4.55;;;17.90;99.90;;;;;;4998730;28;25046;-62
2022/07/18 04:48:06;;;;;;;9.23;5.05;;;18.00;99.90;;;;;;4990920;28;25155;-62
2022/07/18 04:50:32;;;;;;;8.45;4.40;;;18.00;99.90;;;;;;4993499;28;25062;-62
2022/07/18 04:52:58;;;;;;;8.07;4.95;;;17.90;99.90;;;;;;4992942;28;25098;-62
2022/07/18 04:55:25;;;;;;;10.70;4.68;;;17.80;99.90;;;;;;4994577;28;25084;-61
2022/07/18 04:57:52;;;;;;;9.45;4.80;;;17.90;99.90;;;;;;4994061;28;25069;-62
2022/07/18 05:00:20;;;;;;;6.90;4.20;;;18.00;99.90;;;;;;4996450;28;25057;-61
2022/07/18 05:02:49;;;;;;;9.45;4.75;;;18.00;99.90;;;;;;5000965;28;25061;-62
2022/07/18 05:05:16;;;;;;;11.75;5.18;;;18.00;99.90;;;;;;5003916;28;25069;-62
2022/07/18 05:07:43;;;;;;;12.18;4.97;;;18.10;99.90;;;;;;4995133;28;25084;-62
2022/07/18 05:10:10;;;;;;;8.95;4.45;;;18.20;99.90;;;;;;4994512;28;25069;-62
2022/07/18 05:12:38;;;;;;;9.57;4.53;;;18.30;99.90;;;;;;4995719;28;25088;-61
2022/07/18 05:15:10;;;;;;;11.45;4.72;;;18.40;99.90;;;;;;4995356;28;25089;-60
2022/07/18 05:17:36;;;;;;;5.80;4.27;;;18.30;99.90;;;;;;4986134;28;25059;-61
2022/07/18 05:20:02;;;;;;;11.30;5.20;;;18.50;99.90;;;;;;4988076;28;25177;-62
2022/07/18 05:22:28;;;;;;;7.25;4.85;;;18.50;99.90;;;;;;4980861;28;25068;-61
2022/07/18 05:24:53;;;;;;;12.05;5.60;;;18.60;99.90;;;;;;4984044;28;25059;-61
2022/07/18 05:27:19;;;;;;;8.48;5.15;;;18.60;99.90;;;;;;4977763;28;25095;-62
2022/07/18 05:29:45;;;;;;;12.52;5.25;;;18.80;99.90;;;;;;4977873;28;25083;-61
2022/07/18 05:32:11;;;;;;;8.95;4.85;;;18.90;99.90;;;;;;4976594;28;25077;-62
2022/07/18 05:34:37;;;;;;;11.98;5.32;;;19.10;99.90;;;;;;4976402;28;25055;-61
2022/07/18 05:37:02;;;;;;;12.45;5.40;;;19.10;99.90;;;;;;4974457;28;25061;-61
2022/07/18 05:39:28;;;;;;;7.72;5.50;;;19.20;99.90;;;;;;4971350;28;25074;-62
2022/07/18 05:41:53;;;;;;;11.32;6.28;;;19.30;99.90;;;;;;4988743;28;25067;-62
2022/07/18 05:44:20;;;;;;;12.07;5.43;;;19.40;99.90;;;;;;4984122;28;25114;-62
2022/07/18 05:46:46;;;;;;;13.55;6.35;;;19.50;99.90;;;;;;4981171;28;25049;-62
2022/07/18 05:49:13;;;;;;;11.43;5.70;;;19.50;99.90;;;;;;4979671;28;25058;-60
2022/07/18 05:51:39;;;;;;;12.77;6.60;;;19.70;99.90;;;;;;4980202;28;25092;-62
2022/07/18 05:54:05;;;;;;;8.95;4.97;;;19.90;99.90;;;;;;4994737;28;25078;-62
2022/07/18 05:56:30;;;;;;;9.32;5.53;;;20.10;99.90;;;;;;4999873;28;25131;-63
2022/07/18 05:58:56;;;;;;;11.10;5.50;;;20.20;99.90;;;;;;4985307;28;25088;-62
2022/07/18 06:01:22;;;;;;;7.07;5.35;;;20.30;99.90;;;;;;4990532;28;25087;-62
2022/07/18 06:03:48;;;;;;;10.35;5.65;;;20.50;99.90;;;;;;4994143;28;25074;-62
2022/07/18 06:06:14;;;;;;;9.13;5.93;;;20.60;99.90;;;;;;4997444;28;25061;-61
2022/07/18 06:08:40;;;;;;;10.30;5.78;;;20.70;99.90;;;;;;5000147;28;25162;-62
2022/07/18 06:11:07;;;;;;;10.98;5.50;;;20.90;99.90;;;;;;5003520;28;25097;-61
2022/07/18 06:13:34;;;;;;;12.82;5.53;;;21.20;99.90;;;;;;4996660;28;25109;-63
2022/07/18 06:15:59;;;;;;;14.75;5.72;;;21.50;99.90;;;;;;4998635;28;25059;-61
2022/07/18 06:18:25;;;;;;;11.05;5.25;;;21.70;99.90;;;;;;4996765;28;25169;-61
2022/07/18 06:20:51;;;;;;;15.80;5.93;;;21.90;99.90;;;;;;4995575;28;25060;-62
2022/07/18 06:23:17;;;;;;;9.32;5.32;;;22.10;99.90;;;;;;5001004;28;25073;-63
2022/07/18 06:25:42;;;;;;;12.00;5.80;;;22.30;99.90;;;;;;4993157;28;25085;-62
2022/07/18 06:28:08;;;;;;;11.63;5.53;;;22.40;99.90;;;;;;4998295;28;25045;-61
2022/07/18 06:30:34;;;;;;;12.07;5.85;;;22.30;99.90;;;;;;4993500;28;25106;-61
2022/07/18 06:32:59;;;;;;;12.00;5.32;;;22.30;99.90;;;;;;4994443;28;25055;-61
2022/07/18 06:35:25;;;;;;;13.00;6.50;;;22.30;99.90;;;;;;4994434;28;25057;-62
2022/07/18 06:37:50;;;;;;;16.25;5.60;;;22.40;99.90;;;;;;5008628;28;25071;-61
2022/07/18 06:40:16;;;;;;;9.20;5.32;;;22.50;99.90;;;;;;4995569;28;25089;-61
2022/07/18 06:42:41;;;;;;;12.90;4.85;;;22.80;99.90;;;;;;5000481;28;25070;-61
2022/07/18 06:45:07;;;;;;;9.15;5.18;;;23.10;99.90;;;;;;4991781;28;25058;-61
2022/07/18 06:47:33;;;;;;;12.02;6.40;;;23.30;99.90;;;;;;5006005;28;25064;-61
2022/07/18 06:49:58;;;;;;;10.30;5.80;;;23.30;99.30;;;;;;5002672;28;25064;-62
2022/07/18 06:52:24;;;;;;;101.78;22.67;;;23.50;98.80;;;;;;5000796;28;25065;-62
2022/07/18 06:54:49;;;;;;;33.30;11.60;;;23.60;96.70;;;;;;5000145;28;25127;-61
2022/07/18 06:57:15;;;;;;;16.40;7.00;;;23.60;96.00;;;;;;5002662;28;25061;-61
2022/07/18 06:59:41;;;;;;;17.38;6.32;;;24.00;95.40;;;;;;5005699;28;25056;-62
2022/07/18 07:02:06;;;;;;;11.88;6.53;;;24.00;91.10;;;;;;4999685;28;25105;-63
2022/07/18 07:04:32;;;;;;;11.60;5.97;;;24.10;85.90;;;;;;5001817;28;25063;-62
2022/07/18 07:06:57;;;;;;;19.33;7.22;;;24.10;80.50;;;;;;4999309;28;25069;-62
2022/07/18 07:09:23;;;;;;;13.82;6.38;;;24.60;71.60;;;;;;5000555;28;25105;-62
2022/07/18 07:11:48;;;;;;;19.50;8.05;;;24.50;66.80;;;;;;4995217;28;25098;-61
2022/07/18 07:14:14;;;;;;;12.23;6.80;;;24.70;64.20;;;;;;5002866;28;25107;-61
2022/07/18 07:16:40;;;;;;;15.05;6.55;;;25.00;60.10;;;;;;4999220;28;25072;-61
2022/07/18 07:19:05;;;;;;;24.17;8.77;;;25.20;49.30;;;;;;5000611;28;25146;-62
2022/07/18 07:21:31;;;;;;;16.08;7.15;;;24.90;46.60;;;;;;4997080;28;25054;-61
2022/07/18 07:23:56;;;;;;;11.65;6.90;;;24.80;51.00;;;;;;5000634;28;25049;-61
2022/07/18 07:26:22;;;;;;;16.38;7.85;;;24.80;56.30;;;;;;5004194;28;25063;-62
2022/07/18 07:28:47;;;;;;;12.60;7.85;;;25.20;63.20;;;;;;4999798;28;24964;-62
2022/07/18 07:31:13;;;;;;;14.50;7.18;;;25.40;63.00;;;;;;4991219;28;25064;-62
2022/07/18 07:33:39;;;;;;;14.57;6.45;;;25.60;51.70;;;;;;4992071;28;25064;-63
2022/07/18 07:36:05;;;;;;;12.93;6.47;;;25.80;54.00;;;;;;4995434;28;25147;-62
2022/07/18 07:38:31;;;;;;;13.35;6.90;;;26.10;53.50;;;;;;4983754;28;25056;-62
2022/07/18 07:40:56;;;;;;;18.98;6.20;;;26.40;45.80;;;;;;5002190;28;25059;-62
2022/07/18 07:43:24;;;;;;;14.68;6.72;;;26.50;41.60;;;;;;4998403;28;25068;-62
2022/07/18 07:45:52;;;;;;;12.05;6.35;;;26.70;40.20;;;;;;5006135;28;25067;-62
2022/07/18 07:48:18;;;;;;;11.07;5.80;;;26.80;38.20;;;;;;4990675;28;25057;-62
2022/07/18 07:50:44;;;;;;;13.68;6.43;;;26.40;16.80;;;;;;4999297;28;25063;-61
2022/07/18 07:53:09;;;;;;;14.05;6.57;;;26.20;19.70;;;;;;4994165;28;25060;-61
2022/07/18 07:55:35;;;;;;;11.00;5.53;;;26.40;28.30;;;;;;4996404;28;25084;-61
2022/07/18 07:58:01;;;;;;;14.05;6.25;;;26.50;22.00;;;;;;4985889;28;25063;-62
2022/07/18 08:00:27;;;;;;;8.10;5.20;;;26.40;24.20;;;;;;4992585;28;25050;-62
2022/07/18 08:02:59;;;;;;;15.93;4.68;;;26.80;27.30;;;;;;4993387;28;25071;-61
2022/07/18 08:05:27;;;;;;;9.75;5.13;;;27.20;26.90;;;;;;4995370;28;25063;-62
2022/07/18 08:07:53;;;;;;;10.10;5.20;;;26.90;18.80;;;;;;4999616;28;25162;-62
2022/07/18 08:10:19;;;;;;;19.17;6.35;;;27.20;19.70;;;;;;4998990;28;25076;-64
2022/07/18 08:12:44;;;;;;;13.20;5.97;;;27.60;18.10;;;;;;5003254;28;25132;-61
2022/07/18 08:15:10;;;;;;;10.20;5.35;;;27.30;6.00;;;;;;4997529;28;25073;-61
2022/07/18 08:17:36;;;;;;;10.45;4.72;;;27.00;14.70;;;;;;4994706;28;25064;-61
2022/07/18 08:20:03;;;;;;;11.52;5.57;;;26.90;12.60;;;;;;4999644;28;25147;-61
2022/07/18 08:22:28;;;;;;;14.88;4.82;;;27.10;13.30;;;;;;4991818;28;25057;-62
2022/07/18 08:24:54;;;;;;;9.50;4.32;;;27.00;10.40;;;;;;4995401;28;25069;-63
2022/07/18 08:27:19;;;;;;;7.28;3.97;;;27.30;19.40;;;;;;4995943;28;25073;-62
2022/07/18 08:29:45;;;;;;;10.13;4.38;;;27.80;12.50;;;;;;4994875;28;25073;-62
2022/07/18 08:32:11;;;;;;;6.70;4.00;;;28.00;1.00;;;;;;4997482;28;25069;-62
2022/07/18 08:34:36;;;;;;;10.05;4.15;;;27.60;1.00;;;;;;4993042;28;25084;-61
2022/07/18 08:37:02;;;;;;;11.88;3.58;;;27.40;1.00;;;;;;4999370;28;25061;-62
2022/07/18 08:39:28;;;;;;;7.53;3.53;;;27.60;1.00;;;;;;5004021;28;25144;-63
2022/07/18 08:41:55;;;;;;;10.18;3.92;;;27.90;1.00;;;;;;4994988;28;25075;-62
2022/07/18 08:44:21;;;;;;;10.10;3.05;;;28.00;1.00;;;;;;4995845;28;25062;-61
2022/07/18 08:46:51;;;;;;;5.18;3.22;;;27.90;1.00;;;;;;4995509;28;25063;-63
2022/07/18 08:49:17;;;;;;;8.23;2.95;;;27.90;1.00;;;;;;4995925;28;25075;-61
2022/07/18 08:51:43;;;;;;;7.75;3.20;;;28.20;1.00;;;;;;5002972;28;25080;-62
2022/07/18 08:54:10;;;;;;;7.60;2.60;;;28.10;1.00;;;;;;4994105;28;25079;-64
2022/07/18 08:56:35;;;;;;;5.00;2.90;;;28.00;1.00;;;;;;5000034;28;25126;-62
2022/07/18 08:59:02;;;;;;;8.48;3.47;;;28.30;1.00;;;;;;4988266;28;25106;-62
2022/07/18 09:01:28;;;;;;;4.55;2.83;;;28.50;1.00;;;;;;4992596;28;25148;-64
2022/07/18 09:06:47;;;;;;;6.45;3.78;;;28.70;1.00;;;;;;4993597;28;25076;-63
2022/07/18 09:09:14;;;;;;;8.68;3.08;;;28.90;1.00;;;;;;4990311;28;25140;-61
2022/07/18 09:11:51;;;;;;;6.90;2.85;;;28.60;1.00;;;;;;4995510;28;25060;-63
2022/07/18 09:14:41;;;;;;;8.73;2.83;;;28.90;1.00;;;;;;4989926;28;25148;-62
2022/07/18 09:17:16;;;;;;;9.40;3.78;;;28.70;1.00;;;;;;4987651;28;25074;-62
2022/07/18 09:19:55;;;;;;;8.55;2.85;;;29.20;1.00;;;;;;4999259;28;25083;-62
2022/07/18 09:22:23;;;;;;;8.63;2.85;;;29.20;1.00;;;;;;4994657;28;25051;-62
2022/07/18 09:24:53;;;;;;;8.77;2.80;;;29.60;1.00;;;;;;4996515;28;25088;-63
2022/07/18 09:27:28;;;;;;;7.28;2.42;;;29.60;1.00;;;;;;4996595;28;25082;-63
2022/07/18 09:30:24;;;;;;;7.50;2.83;;;29.80;1.00;;;;;;4994547;28;25075;-62
2022/07/18 09:33:02;;;;;;;9.13;2.60;;;29.30;1.00;;;;;;4995137;28;25065;-63
2022/07/18 09:35:33;;;;;;;5.75;2.70;;;29.10;1.00;;;;;;4987292;28;25073;-61
2022/07/18 09:38:07;;;;;;;;;;;28.80;1.00;;;;;;4993888;28;25138;-61
2022/07/18 09:40:44;;;;;;;7.38;2.78;;;29.00;1.00;;;;;;4996869;28;24075;-63
2022/07/18 09:43:16;;;;;;;7.20;3.00;;;29.50;1.00;;;;;;4988077;28;25161;-63
2022/07/18 09:45:46;;;;;;;6.28;3.00;;;30.00;1.00;;;;;;4997689;28;25077;-62
2022/07/18 09:48:15;;;;;;;4.63;2.28;;;30.20;1.00;;;;;;4998071;28;25139;-62
2022/07/18 09:50:53;;;;;;;10.50;2.78;;;30.50;1.00;;;;;;4989695;28;25070;-62
2022/07/18 09:53:25;;;;;;;9.63;3.15;;;30.10;1.00;;;;;;4989650;28;25152;-62
2022/07/18 09:55:52;;;;;;;9.40;2.85;;;29.80;1.00;;;;;;4995348;28;25189;-62
2022/07/18 09:58:24;;;;;;;5.38;2.78;;;30.40;1.00;;;;;;4996993;28;25051;-62
2022/07/18 10:00:51;;;;;;;11.73;2.80;;;30.10;1.00;;;;;;4994456;28;25058;-62
2022/07/18 10:03:17;;;;;;;8.52;2.55;;;29.60;1.00;;;;;;4997149;28;25097;-62
2022/07/18 10:05:45;;;;;;;7.63;2.72;;;29.80;1.00;;;;;;4979861;28;25069;-62
2022/07/18 10:08:14;;;;;;;10.77;2.88;;;30.40;1.00;;;;;;4991259;28;25077;-63
2022/07/18 10:10:41;;;;;;;8.05;2.78;;;30.90;1.00;;;;;;4992752;28;25110;-62
2022/07/18 10:13:08;;;;;;;7.68;2.60;;;30.80;1.00;;;;;;4987121;28;25059;-64
2022/07/18 10:15:36;;;;;;;5.95;2.30;;;31.10;1.00;;;;;;4993490;28;25120;-62
2022/07/18 10:18:04;;;;;;;12.02;2.90;;;31.10;1.00;;;;;;5001395;28;25071;-62
2022/07/18 10:20:44;;;;;;;8.93;2.75;;;30.90;1.00;;;;;;4992239;28;25175;-63
2022/07/18 10:23:32;;;;;;;13.88;3.15;;;30.50;1.00;;;;;;4995000;28;25156;-61
2022/07/18 10:26:19;;;;;;;14.98;3.50;;;30.20;1.00;;;;;;4991683;28;25069;-62
2022/07/18 10:28:59;;;;;;;10.68;3.72;;;30.20;1.00;;;;;;4988419;28;25105;-62
2022/07/18 10:31:34;;;;;;;4.45;2.60;;;30.90;1.00;;;;;;4995065;28;25091;-62
2022/07/18 10:34:05;;;;;;;6.78;2.42;;;30.30;1.00;;;;;;4990904;28;25143;-63
2022/07/18 10:36:32;;;;;;;17.67;3.72;;;30.20;1.00;;;;;;4997667;28;25053;-64
2022/07/18 10:39:14;;;;;;;5.18;2.78;;;30.90;1.00;;;;;;5002723;28;25085;-62
2022/07/18 10:41:42;;;;;;;22.20;3.45;;;30.60;1.00;;;;;;4993595;28;25120;-61
2022/07/18 10:44:23;;;;;;;13.52;3.30;;;30.70;1.00;;;;;;5004194;28;25132;-63
2022/07/18 10:47:17;;;;;;;17.30;3.10;;;30.80;1.00;;;;;;4994363;28;25070;-62
2022/07/18 10:49:57;;;;;;;8.98;3.15;;;31.50;1.00;;;;;;4988060;28;25137;-62
2022/07/18 10:52:29;;;;;;;12.13;3.42;;;31.30;1.00;;;;;;4999964;28;25093;-63
2022/07/18 10:55:04;;;;;;;5.78;2.53;;;31.30;1.00;;;;;;4993137;28;25077;-63
2022/07/18 10:57:31;;;;;;;9.40;2.80;;;30.90;1.00;;;;;;4998132;28;25060;-64
2022/07/18 11:00:08;;;;;;;4.32;2.20;;;30.90;1.00;;;;;;4999039;28;25063;-62
2022/07/18 11:02:45;;;;;;;7.25;2.80;;;30.90;1.00;;;;;;4984616;28;25181;-63
2022/07/18 11:05:25;;;;;;;12.98;4.18;;;30.50;1.00;;;;;;4995582;28;25051;-64
2022/07/18 11:08:17;;;;;;;12.93;4.05;;;30.90;1.00;;;;;;4986637;28;25051;-63
2022/07/18 11:13:24;;;;;;;14.43;5.47;;;32.40;99.90;;;;;;4999413;28;25080;-62
2022/07/18 11:15:56;;;;;;;14.10;6.40;;;32.70;99.90;;;;;;4987842;28;25102;-63
2022/07/18 11:18:22;;;;;;;9.77;5.03;;;32.60;99.90;;;;;;4986725;28;25073;-62
2022/07/18 11:20:48;;;;;;;19.23;7.20;;;32.70;99.90;;;;;;5002115;28;25052;-63
2022/07/18 11:23:18;;;;;;;8.82;4.90;;;33.30;99.90;;;;;;4985602;28;25060;-64
2022/07/18 11:25:45;;;;;;;23.92;5.63;;;33.50;99.90;;;;;;4999915;28;25062;-63
2022/07/18 11:28:11;;;;;;;11.30;4.53;;;33.60;99.90;;;;;;4988464;28;25064;-64
2022/07/18 11:30:38;;;;;;;8.02;3.88;;;33.20;99.90;;;;;;4991624;28;25098;-63
2022/07/18 11:33:05;;;;;;;4.93;3.67;;;33.30;99.90;;;;;;4988029;28;25059;-64
2022/07/18 11:35:31;;;;;;;17.45;4.80;;;33.60;99.90;;;;;;4986896;28;25081;-64
2022/07/18 11:37:57;;;;;;;5.20;3.70;;;33.60;99.90;;;;;;5002533;28;25066;-64
2022/07/18 11:40:22;;;;;;;7.82;3.10;;;33.50;99.90;;;;;;4983178;28;25082;-63
2022/07/18 11:42:48;;;;;;;8.18;3.45;;;33.20;99.90;;;;;;4994513;28;25080;-63
2022/07/18 11:45:16;;;;;;;13.48;3.63;;;33.20;99.90;;;;;;4988138;28;25077;-64
2022/07/18 11:47:54;;;;;;;4.95;3.22;;;33.10;99.90;;;;;;4995930;28;25143;-62
2022/07/18 11:50:37;;;;;;;7.18;3.05;;;33.70;99.90;;;;;;4991567;28;25096;-63
2022/07/18 11:53:02;;;;;;;6.03;2.88;;;34.10;99.90;;;;;;4996101;28;25056;-63
2022/07/18 11:55:36;;;;;;;8.13;3.05;;;33.90;99.90;;;;;;4999183;28;25081;-63
2022/07/18 11:58:09;;;;;;;9.13;3.67;;;33.40;99.90;;;;;;4993520;28;25141;-62
2022/07/18 12:00:35;;;;;;;9.43;3.38;;;33.60;99.90;;;;;;4995752;28;25095;-64
2022/07/18 12:03:23;;;;;;;10.07;3.50;;;34.10;99.90;;;;;;4999046;28;25082;-63
2022/07/18 12:05:52;;;;;;;11.45;3.75;;;34.00;99.90;;;;;;4990192;28;25145;-63
2022/07/18 12:08:27;;;;;;;6.25;3.38;;;34.10;99.90;;;;;;5000581;28;25071;-64
2022/07/18 12:11:03;;;;;;;6.38;3.13;;;34.20;99.90;;;;;;4992368;28;25107;-63
2022/07/18 12:13:39;;;;;;;6.53;3.13;;;33.90;99.90;;;;;;4998649;28;25099;-67
2022/07/18 12:16:05;;;;;;;7.32;3.10;;;33.90;99.90;;;;;;4991206;28;25058;-63
2022/07/18 12:18:30;;;;;;;7.45;2.95;;;33.80;99.90;;;;;;4994871;28;25060;-63
2022/07/18 12:21:16;;;;;;;5.03;3.28;;;33.80;99.90;;;;;;5003034;28;25048;-64
2022/07/18 12:23:41;;;;;;;8.80;3.08;;;34.10;99.90;;;;;;4990454;28;25076;-64
2022/07/18 12:26:07;;;;;;;8.38;2.88;;;33.90;99.90;;;;;;4997571;28;25079;-63
2022/07/18 12:28:33;;;;;;;11.68;3.65;;;34.30;99.90;;;;;;4995982;28;25076;-61
2022/07/18 12:30:58;;;;;;;6.78;2.95;;;34.60;99.90;;;;;;4998507;28;25055;-66
2022/07/18 12:33:24;;;;;;;9.68;3.15;;;34.40;99.90;;;;;;4996298;28;25050;-63
2022/07/18 12:35:57;;;;;;;7.60;3.33;;;34.30;99.90;;;;;;4999237;28;25075;-63
2022/07/18 12:38:23;;;;;;;7.57;2.95;;;34.00;99.90;;;;;;5002763;28;25063;-63
2022/07/18 12:41:01;;;;;;;4.45;2.80;;;33.60;99.90;;;;;;5005154;28;25142;-64
2022/07/18 12:43:35;;;;;;;7.95;3.53;;;33.50;99.90;;;;;;4998938;28;25159;-62
2022/07/18 12:46:05;;;;;;;3.67;2.78;;;33.50;99.90;;;;;;4998904;28;25126;-66
2022/07/18 12:48:33;;;;;;;4.20;3.25;;;33.60;99.90;;;;;;5001607;28;25072;-64
2022/07/18 12:51:00;;;;;;;8.30;3.03;;;33.90;99.90;;;;;;5000316;28;25167;-64
2022/07/18 12:53:26;;;;;;;8.32;2.72;;;34.10;99.90;;;;;;5000739;28;25113;-65
2022/07/18 12:55:52;;;;;;;8.93;2.90;;;33.90;99.90;;;;;;4996133;28;25082;-64